Time;durP1;ratioP1;P1;durP2;ratioP2;P2;SDS_P1;SDS_P2;PMS_P1;PMS_P2;Temp;Humidity;BMP_temperature;BMP_pressure;BME280_temperature;BME280_humidity;BME280_pressure;Samples;Min_cycle;Max_cycle;Signal;HPM_P1;HPM_P2
2021/07/16 00:01:28;;;;;;;15.32;5.85;;;17.80;93.00;;;;;;5052837;28;20056;-70
2021/07/16 00:03:54;;;;;;;11.05;5.13;;;17.80;93.00;;;;;;5052855;28;20403;-70
2021/07/16 00:06:20;;;;;;;9.75;4.78;;;17.80;92.90;;;;;;5052841;28;20083;-70
2021/07/16 00:08:45;;;;;;;13.07;5.43;;;17.70;92.80;;;;;;5053146;28;20025;-70
2021/07/16 00:11:11;;;;;;;11.63;5.82;;;17.80;92.80;;;;;;5053888;28;20373;-70
2021/07/16 00:13:37;;;;;;;11.70;5.72;;;17.80;92.80;;;;;;5036074;28;20025;-70
2021/07/16 00:16:04;;;;;;;10.73;5.47;;;17.80;92.80;;;;;;5054036;28;20036;-70
2021/07/16 00:18:30;;;;;;;10.60;4.95;;;17.80;92.70;;;;;;5053783;28;20481;-70
2021/07/16 00:20:56;;;;;;;10.68;5.43;;;17.80;92.80;;;;;;5053997;28;20029;-71
2021/07/16 00:23:21;;;;;;;9.05;5.45;;;17.70;92.80;;;;;;5053708;28;20476;-71
2021/07/16 00:25:47;;;;;;;10.52;5.15;;;17.70;92.80;;;;;;5035863;28;20052;-71
2021/07/16 00:28:12;;;;;;;10.40;5.22;;;17.70;92.80;;;;;;5035950;28;20024;-70
2021/07/16 00:30:38;;;;;;;12.23;5.85;;;17.70;92.90;;;;;;5052763;28;20107;-70
2021/07/16 00:33:05;;;;;;;10.88;6.13;;;17.70;92.90;;;;;;5051711;28;20021;-70
2021/07/16 00:35:32;;;;;;;13.75;7.07;;;17.60;92.90;;;;;;5052249;28;20024;-70
2021/07/16 00:37:57;;;;;;;17.50;7.50;;;17.60;92.90;;;;;;5052256;28;20025;-70
2021/07/16 00:40:24;;;;;;;13.07;7.45;;;17.60;92.90;;;;;;5052618;28;20086;-70
2021/07/16 00:42:50;;;;;;;14.30;6.75;;;17.60;92.90;;;;;;5053665;28;20438;-70
2021/07/16 00:45:16;;;;;;;13.27;6.63;;;17.60;93.00;;;;;;5053498;28;20064;-70
2021/07/16 00:47:44;;;;;;;17.17;6.80;;;17.50;93.00;;;;;;5052180;28;20021;-70
2021/07/16 00:50:22;;;;;;;13.55;6.28;;;17.50;93.00;;;;;;5053259;28;20029;-70
2021/07/16 00:52:48;;;;;;;14.75;6.45;;;17.50;93.00;;;;;;5052007;28;20037;-70
2021/07/16 00:55:16;;;;;;;15.50;7.18;;;17.50;93.10;;;;;;5052042;28;20056;-70
2021/07/16 00:57:42;;;;;;;14.90;6.95;;;17.50;93.10;;;;;;5053275;28;20021;-70
2021/07/16 01:00:10;;;;;;;16.30;7.93;;;17.50;93.10;;;;;;5051945;28;20021;-69
2021/07/16 01:02:36;;;;;;;14.93;7.03;;;17.50;93.40;;;;;;5052202;28;20346;-70
2021/07/16 01:05:04;;;;;;;15.13;8.45;;;17.50;93.10;;;;;;5052521;28;20372;-70
2021/07/16 01:07:30;;;;;;;11.20;6.78;;;17.50;93.10;;;;;;5052459;28;20029;-70
2021/07/16 01:09:55;;;;;;;13.10;6.47;;;17.40;93.20;;;;;;5052400;28;20033;-70
2021/07/16 01:12:22;;;;;;;11.93;6.22;;;17.40;93.20;;;;;;5052160;28;20025;-71
2021/07/16 01:14:49;;;;;;;13.98;6.75;;;17.50;93.20;;;;;;5053485;28;20061;-70
2021/07/16 01:17:15;;;;;;;13.48;6.90;;;17.40;93.10;;;;;;5053572;28;20063;-70
2021/07/16 01:19:57;;;;;;;10.15;5.88;;;17.40;93.10;;;;;;5053551;28;20031;-70
2021/07/16 01:22:27;;;;;;;13.77;7.32;;;17.40;93.10;;;;;;5053544;28;20049;-70
2021/07/16 01:24:53;;;;;;;12.95;6.93;;;17.40;93.10;;;;;;5053028;28;20025;-70
2021/07/16 01:27:19;;;;;;;12.88;6.72;;;17.40;93.10;;;;;;5052247;28;20449;-70
2021/07/16 01:29:47;;;;;;;18.70;7.53;;;17.40;93.10;;;;;;5053489;28;20025;-70
2021/07/16 01:32:14;;;;;;;13.43;7.05;;;17.40;93.00;;;;;;5053440;28;20480;-70
2021/07/16 01:34:41;;;;;;;18.25;7.75;;;17.40;93.00;;;;;;5053178;28;20021;-76
2021/07/16 01:37:06;;;;;;;17.70;7.45;;;17.40;93.00;;;;;;5053047;28;20116;-75
2021/07/16 01:39:32;;;;;;;17.02;7.63;;;17.40;92.90;;;;;;5052929;28;20075;-75
2021/07/16 01:42:00;;;;;;;16.35;7.57;;;17.40;93.00;;;;;;5052914;28;20037;-76
2021/07/16 01:44:26;;;;;;;13.27;6.53;;;17.40;93.00;;;;;;5054456;28;20033;-75
2021/07/16 01:46:52;;;;;;;12.63;7.75;;;17.40;92.90;;;;;;5056882;28;20032;-76
2021/07/16 01:49:17;;;;;;;17.33;7.78;;;17.30;92.90;;;;;;5055414;28;20033;-75
2021/07/16 01:51:43;;;;;;;15.35;8.07;;;17.40;92.90;;;;;;5055240;28;20496;-75
2021/07/16 01:54:09;;;;;;;17.00;7.57;;;17.40;92.90;;;;;;5056791;28;20037;-75
2021/07/16 01:56:34;;;;;;;16.27;8.20;;;17.30;92.80;;;;;;5056372;28;20033;-75
2021/07/16 01:59:00;;;;;;;16.08;7.53;;;17.30;92.80;;;;;;5056402;28;20013;-76
2021/07/16 02:01:26;;;;;;;15.60;7.85;;;17.30;92.90;;;;;;5055493;28;20461;-75
2021/07/16 02:03:52;;;;;;;15.07;7.93;;;17.30;92.90;;;;;;5055076;28;20116;-75
2021/07/16 02:06:18;;;;;;;15.32;7.25;;;17.30;92.90;;;;;;5056428;28;20033;-77
2021/07/16 02:08:45;;;;;;;16.45;7.80;;;17.40;92.90;;;;;;5056412;28;20036;-75
2021/07/16 02:11:10;;;;;;;18.15;8.07;;;17.30;92.80;;;;;;5056277;28;20385;-76
2021/07/16 02:13:36;;;;;;;18.73;8.23;;;17.30;92.80;;;;;;5056295;28;20021;-76
2021/07/16 02:16:03;;;;;;;19.35;8.32;;;17.30;92.80;;;;;;5056663;28;20522;-76
2021/07/16 02:18:29;;;;;;;15.23;6.90;;;17.30;92.70;;;;;;5055085;28;20029;-75
2021/07/16 02:20:54;;;;;;;23.27;7.85;;;17.30;92.70;;;;;;5055253;28;20025;-75
2021/07/16 02:23:24;;;;;;;15.48;6.95;;;17.30;92.70;;;;;;5056754;28;20112;-75
2021/07/16 02:25:49;;;;;;;21.80;8.18;;;17.30;92.60;;;;;;5056035;28;20028;-75
2021/07/16 02:28:21;;;;;;;13.40;6.82;;;17.30;92.60;;;;;;5055008;28;20025;-75
2021/07/16 02:30:47;;;;;;;15.40;7.88;;;17.30;92.60;;;;;;5055479;28;20017;-76
2021/07/16 02:33:14;;;;;;;16.33;6.95;;;17.30;92.50;;;;;;5056055;28;20031;-75
2021/07/16 02:35:39;;;;;;;15.10;6.88;;;17.20;92.40;;;;;;5056230;28;20033;-75
2021/07/16 02:38:06;;;;;;;17.08;7.75;;;17.20;92.40;;;;;;5054433;28;20349;-75
2021/07/16 02:40:33;;;;;;;16.50;7.07;;;17.20;92.30;;;;;;5055811;28;20079;-75
2021/07/16 02:43:00;;;;;;;16.65;6.65;;;17.30;92.30;;;;;;5056001;28;20029;-70
2021/07/16 02:45:26;;;;;;;12.20;6.55;;;17.20;92.20;;;;;;5055738;28;20087;-71
2021/07/16 02:47:52;;;;;;;16.63;6.80;;;17.20;92.20;;;;;;5038103;28;20021;-70
2021/07/16 02:50:33;;;;;;;14.70;7.68;;;17.20;92.20;;;;;;5054525;28;20060;-70
2021/07/16 02:52:58;;;;;;;16.25;6.75;;;17.20;92.10;;;;;;5054396;28;20115;-70
2021/07/16 02:55:24;;;;;;;15.50;7.38;;;17.20;92.00;;;;;;5055126;28;20061;-70
2021/07/16 02:57:51;;;;;;;17.08;6.57;;;17.20;92.00;;;;;;5055707;28;20484;-70
2021/07/16 03:00:22;;;;;;;20.48;7.50;;;17.20;92.00;;;;;;5055744;28;20028;-70
2021/07/16 03:02:49;;;;;;;14.02;7.00;;;17.20;92.00;;;;;;5055277;28;20162;-70
2021/07/16 03:05:18;;;;;;;16.92;6.45;;;17.10;91.90;;;;;;5055541;28;20037;-70
2021/07/16 03:07:45;;;;;;;13.32;5.93;;;17.10;91.90;;;;;;5054229;28;20063;-70
2021/07/16 03:10:23;;;;;;;18.67;7.65;;;17.10;91.90;;;;;;5055461;28;20017;-70
2021/07/16 03:12:50;;;;;;;13.90;6.85;;;17.10;91.80;;;;;;5055306;28;20031;-70
2021/07/16 03:15:19;;;;;;;17.98;6.38;;;17.10;91.70;;;;;;5054311;28;20052;-70
2021/07/16 03:17:45;;;;;;;16.08;7.20;;;17.00;91.70;;;;;;5055146;28;20100;-70
2021/07/16 03:20:14;;;;;;;19.70;6.97;;;17.00;91.60;;;;;;5055214;28;20040;-70
2021/07/16 03:22:39;;;;;;;16.70;6.93;;;17.00;91.70;;;;;;5053998;28;20099;-70
2021/07/16 03:25:08;;;;;;;14.20;7.55;;;17.00;91.70;;;;;;5055117;28;20522;-70
2021/07/16 03:27:34;;;;;;;14.63;6.13;;;17.00;91.70;;;;;;5055196;28;20119;-70
2021/07/16 03:30:00;;;;;;;12.95;6.03;;;16.90;91.70;;;;;;5054909;28;20027;-70
2021/07/16 03:32:25;;;;;;;19.15;6.75;;;16.90;91.60;;;;;;5054828;28;20028;-70
2021/07/16 03:34:51;;;;;;;16.00;6.35;;;17.00;91.70;;;;;;5054022;28;20473;-70
2021/07/16 03:37:17;;;;;;;18.95;7.07;;;16.90;91.60;;;;;;5054881;28;20056;-70
2021/07/16 03:39:43;;;;;;;15.02;6.38;;;16.90;91.60;;;;;;5053310;28;20417;-70
2021/07/16 03:42:09;;;;;;;17.27;6.57;;;16.90;91.60;;;;;;5037331;28;20031;-70
2021/07/16 03:44:35;;;;;;;18.13;7.20;;;16.90;91.60;;;;;;5053448;28;20029;-70
2021/07/16 03:47:00;;;;;;;16.45;6.28;;;16.90;91.60;;;;;;5053353;28;20052;-70
2021/07/16 03:49:26;;;;;;;16.35;6.55;;;16.90;91.60;;;;;;5053591;28;20021;-70
2021/07/16 03:51:56;;;;;;;15.50;6.88;;;16.90;91.60;;;;;;5053146;28;20045;-71
2021/07/16 03:54:22;;;;;;;17.65;5.93;;;16.90;91.60;;;;;;5053538;28;20094;-70
2021/07/16 03:56:48;;;;;;;16.27;6.57;;;16.90;91.60;;;;;;5053137;28;20025;-70
2021/07/16 03:59:14;;;;;;;18.52;6.25;;;16.90;91.70;;;;;;5036739;28;20456;-70
2021/07/16 04:01:40;;;;;;;11.98;6.20;;;16.80;91.60;;;;;;5041427;28;20032;-70
2021/07/16 04:04:05;;;;;;;17.90;6.38;;;16.90;91.60;;;;;;5032947;28;20381;-71
2021/07/16 04:06:33;;;;;;;18.98;6.38;;;16.80;91.50;;;;;;5031661;28;20029;-71
2021/07/16 04:09:26;;;;;;;15.27;5.78;;;16.80;91.50;;;;;;5014597;28;20021;-70
2021/07/16 04:11:52;;;;;;;16.90;6.05;;;16.80;91.50;;;;;;5032557;28;20113;-71
2021/07/16 04:14:18;;;;;;;13.63;5.47;;;16.80;91.50;;;;;;5033172;28;20040;-70
2021/07/16 04:16:43;;;;;;;15.88;5.85;;;16.80;91.50;;;;;;5015675;28;20035;-71
2021/07/16 04:19:09;;;;;;;18.75;6.47;;;16.80;91.50;;;;;;5033799;28;20013;-70
2021/07/16 04:21:34;;;;;;;16.63;5.60;;;16.80;91.50;;;;;;5016442;28;20034;-70
2021/07/16 04:24:00;;;;;;;19.48;6.35;;;16.80;91.50;;;;;;5032938;28;20018;-70
2021/07/16 04:26:26;;;;;;;18.10;6.25;;;16.80;91.50;;;;;;5049718;28;20437;-70
2021/07/16 04:28:51;;;;;;;16.48;5.82;;;16.80;91.50;;;;;;5052286;28;20034;-75
2021/07/16 04:31:17;;;;;;;23.55;5.70;;;16.70;91.40;;;;;;5052791;28;20032;-76
2021/07/16 04:33:42;;;;;;;12.73;5.05;;;16.70;91.40;;;;;;5052283;28;20465;-76
2021/07/16 04:36:08;;;;;;;9.48;3.92;;;16.80;91.40;;;;;;5053590;28;20113;-76
2021/07/16 04:38:35;;;;;;;12.40;4.75;;;16.70;91.40;;;;;;5053421;28;20037;-70
2021/07/16 04:41:01;;;;;;;12.43;4.72;;;16.80;91.40;;;;;;5051356;28;20033;-69
2021/07/16 04:43:26;;;;;;;18.50;4.93;;;16.80;91.40;;;;;;5053510;28;20408;-69
2021/07/16 04:45:52;;;;;;;22.02;5.90;;;16.80;91.30;;;;;;5053202;28;20033;-75
2021/07/16 04:48:18;;;;;;;17.15;4.80;;;16.80;91.10;;;;;;5053270;28;20809;-69
2021/07/16 04:50:43;;;;;;;16.00;4.97;;;16.80;91.20;;;;;;5052396;28;20095;-69
2021/07/16 04:53:09;;;;;;;13.18;4.82;;;16.80;91.10;;;;;;5052243;28;20045;-69
2021/07/16 04:55:35;;;;;;;14.88;4.43;;;16.90;91.20;;;;;;5052190;28;20412;-68
2021/07/16 04:58:00;;;;;;;18.65;4.63;;;16.90;91.10;;;;;;5019146;28;20123;-70
2021/07/16 05:00:26;;;;;;;16.88;4.32;;;16.90;91.00;;;;;;5053374;28;20051;-70
2021/07/16 05:02:51;;;;;;;18.15;4.53;;;16.90;91.00;;;;;;5035785;28;20033;-70
2021/07/16 05:05:17;;;;;;;17.85;5.00;;;17.00;91.00;;;;;;5018983;28;20037;-71
2021/07/16 05:07:43;;;;;;;14.80;4.40;;;17.00;91.00;;;;;;5051930;28;20115;-70
2021/07/16 05:10:11;;;;;;;17.20;4.70;;;17.00;90.90;;;;;;5053241;28;20067;-71
2021/07/16 05:12:36;;;;;;;11.93;3.80;;;17.00;90.90;;;;;;5053373;28;20594;-75
2021/07/16 05:15:04;;;;;;;12.02;4.20;;;17.00;90.90;;;;;;5052390;28;20123;-76
2021/07/16 05:17:30;;;;;;;16.85;3.85;;;17.00;90.80;;;;;;5053121;28;20438;-76
2021/07/16 05:19:56;;;;;;;10.38;3.65;;;17.00;90.80;;;;;;5054523;28;20116;-76
2021/07/16 05:22:21;;;;;;;12.82;4.32;;;17.10;90.90;;;;;;5056487;28;20368;-70
2021/07/16 05:24:47;;;;;;;11.75;3.40;;;17.10;90.80;;;;;;5057451;28;20029;-70
2021/07/16 05:27:13;;;;;;;15.25;4.07;;;17.10;90.80;;;;;;5056104;28;20051;-70
2021/07/16 05:29:38;;;;;;;13.48;3.97;;;17.10;90.60;;;;;;5055923;28;20394;-70
2021/07/16 05:32:04;;;;;;;14.40;3.58;;;17.20;90.90;;;;;;5039375;28;20094;-70
2021/07/16 05:34:30;;;;;;;13.10;3.90;;;17.30;90.60;;;;;;5055915;28;20069;-71
2021/07/16 05:36:55;;;;;;;12.95;3.83;;;17.20;90.50;;;;;;5039060;28;20140;-71
2021/07/16 05:39:21;;;;;;;15.57;3.78;;;17.30;90.40;;;;;;5056665;28;20076;-70
2021/07/16 05:41:47;;;;;;;18.15;3.88;;;17.30;90.40;;;;;;5057133;28;20051;-71
2021/07/16 05:44:12;;;;;;;12.60;3.70;;;17.30;90.40;;;;;;5055921;28;20028;-70
2021/07/16 05:46:38;;;;;;;15.50;3.92;;;17.30;90.40;;;;;;5055921;28;20033;-70
2021/07/16 05:49:03;;;;;;;15.93;3.20;;;17.30;90.40;;;;;;5022218;28;20117;-70
2021/07/16 05:51:29;;;;;;;12.32;3.20;;;17.30;90.40;;;;;;5045269;28;20046;-70
2021/07/16 05:53:54;;;;;;;16.27;4.25;;;17.30;90.50;;;;;;5062555;28;20039;-70
2021/07/16 05:56:20;;;;;;;17.55;3.72;;;17.40;90.50;;;;;;5075271;28;20029;-70
2021/07/16 05:58:46;;;;;;;16.52;3.90;;;17.40;90.40;;;;;;5054311;28;20033;-70
2021/07/16 06:01:11;;;;;;;16.13;3.75;;;17.40;90.30;;;;;;5046213;28;20029;-70
2021/07/16 06:03:37;;;;;;;13.77;3.97;;;17.50;90.60;;;;;;5048039;28;20030;-71
2021/07/16 06:06:03;;;;;;;18.48;3.92;;;17.60;90.30;;;;;;5071276;28;20035;-70
2021/07/16 06:08:28;;;;;;;17.73;3.38;;;17.70;90.30;;;;;;5047857;28;20052;-71
2021/07/16 06:10:54;;;;;;;17.35;3.45;;;17.70;90.20;;;;;;5073870;28;20032;-70
2021/07/16 06:13:19;;;;;;;15.85;3.60;;;17.90;90.20;;;;;;5058113;28;20025;-70
2021/07/16 06:15:45;;;;;;;16.23;3.83;;;17.90;90.10;;;;;;5075857;28;20039;-70
2021/07/16 06:18:11;;;;;;;13.38;3.58;;;17.90;89.90;;;;;;5058237;28;20094;-70
2021/07/16 06:20:38;;;;;;;14.98;3.63;;;17.90;90.00;;;;;;5076053;28;20384;-69
2021/07/16 06:23:04;;;;;;;15.90;3.20;;;17.90;89.50;;;;;;5075056;28;20029;-70
2021/07/16 06:25:29;;;;;;;12.88;3.20;;;17.90;89.50;;;;;;5075612;28;20035;-71
2021/07/16 06:27:55;;;;;;;14.98;3.65;;;17.90;89.10;;;;;;5072062;28;20086;-71
2021/07/16 06:30:21;;;;;;;11.82;3.55;;;17.90;89.00;;;;;;5047912;28;20029;-70
2021/07/16 06:32:46;;;;;;;19.80;3.10;;;17.90;88.70;;;;;;5067296;28;20025;-70
2021/07/16 06:35:12;;;;;;;15.27;4.18;;;17.80;89.40;;;;;;5075947;28;20036;-70
2021/07/16 06:37:38;;;;;;;10.90;3.00;;;17.80;88.80;;;;;;5075029;28;20365;-69
2021/07/16 06:40:06;;;;;;;13.25;3.45;;;17.90;89.00;;;;;;5059779;28;20082;-70
2021/07/16 06:42:32;;;;;;;18.70;4.15;;;17.90;88.80;;;;;;5037721;28;20436;-70
2021/07/16 06:44:58;;;;;;;17.33;3.53;;;17.90;88.60;;;;;;5054352;28;20056;-70
2021/07/16 06:47:24;;;;;;;16.02;3.72;;;17.90;88.70;;;;;;5054460;28;20029;-69
2021/07/16 06:49:50;;;;;;;16.48;3.70;;;17.90;88.60;;;;;;5055276;28;20361;-70
2021/07/16 06:52:15;;;;;;;13.70;3.00;;;18.00;88.60;;;;;;5054176;28;20053;-71
2021/07/16 06:54:41;;;;;;;12.90;3.25;;;18.00;88.40;;;;;;5056830;28;20112;-70
2021/07/16 06:57:07;;;;;;;15.27;3.08;;;18.10;88.50;;;;;;5073549;28;20480;-71
2021/07/16 06:59:33;;;;;;;15.75;3.38;;;18.10;88.60;;;;;;5068313;28;20162;-70
2021/07/16 07:01:58;;;;;;;18.42;4.20;;;18.20;88.40;;;;;;5063878;28;20117;-69
2021/07/16 07:04:24;;;;;;;18.05;3.60;;;18.20;88.20;;;;;;5075428;28;20029;-70
2021/07/16 07:06:50;;;;;;;14.32;3.40;;;18.30;88.00;;;;;;5075446;28;20099;-70
2021/07/16 07:09:17;;;;;;;20.13;4.03;;;18.30;87.80;;;;;;5075272;28;20021;-70
2021/07/16 07:11:42;;;;;;;14.25;3.55;;;18.30;87.80;;;;;;5073624;28;20384;-70
2021/07/16 07:14:08;;;;;;;18.45;3.72;;;18.40;87.70;;;;;;5075059;28;20033;-70
2021/07/16 07:16:34;;;;;;;16.95;3.85;;;18.40;87.70;;;;;;5074001;28;20033;-69
2021/07/16 07:19:00;;;;;;;18.20;3.83;;;18.40;87.50;;;;;;5075015;28;20052;-69
2021/07/16 07:21:26;;;;;;;21.05;3.78;;;18.40;87.50;;;;;;5057130;28;20020;-70
2021/07/16 07:23:52;;;;;;;17.85;3.95;;;18.40;87.30;;;;;;5074548;28;20115;-70
2021/07/16 07:26:17;;;;;;;12.40;3.47;;;18.50;87.10;;;;;;5066849;28;20036;-74
2021/07/16 07:28:43;;;;;;;12.57;3.38;;;18.50;87.00;;;;;;5054928;28;20033;-73
2021/07/16 07:31:09;;;;;;;14.27;3.50;;;18.50;87.00;;;;;;5053211;28;20071;-73
2021/07/16 07:33:35;;;;;;;19.10;5.15;;;18.50;86.90;;;;;;5036906;28;20123;-74
2021/07/16 07:36:01;;;;;;;12.60;3.58;;;18.40;86.50;;;;;;5054977;28;20099;-74
2021/07/16 07:38:26;;;;;;;12.07;3.15;;;18.40;86.60;;;;;;5054567;28;20063;-73
2021/07/16 07:40:53;;;;;;;17.73;3.90;;;18.40;86.80;;;;;;5073200;28;20477;-73
2021/07/16 07:43:19;;;;;;;18.95;4.05;;;18.40;86.70;;;;;;5073005;28;20081;-74
2021/07/16 07:45:45;;;;;;;17.45;3.70;;;18.40;86.70;;;;;;5073081;28;20032;-73
2021/07/16 07:48:11;;;;;;;18.45;3.35;;;18.40;86.80;;;;;;5073168;28;20072;-74
2021/07/16 07:50:37;;;;;;;17.73;3.90;;;18.40;86.70;;;;;;5074189;28;20052;-74
2021/07/16 07:53:03;;;;;;;11.70;3.60;;;18.50;86.50;;;;;;5073934;28;20107;-73
2021/07/16 07:55:29;;;;;;;12.25;3.85;;;18.50;86.60;;;;;;5056202;28;20123;-73
2021/07/16 07:57:54;;;;;;;17.10;3.67;;;18.50;86.90;;;;;;5073008;28;20472;-74
2021/07/16 08:00:23;;;;;;;16.42;3.83;;;18.60;87.10;;;;;;5056206;28;20039;-74
2021/07/16 08:02:49;;;;;;;15.02;3.53;;;18.60;87.00;;;;;;5074116;28;20028;-74
2021/07/16 08:05:14;;;;;;;19.92;3.55;;;18.60;86.60;;;;;;5072616;28;20059;-73
2021/07/16 08:07:41;;;;;;;15.77;3.38;;;18.70;86.30;;;;;;5055330;28;20024;-74
2021/07/16 08:10:15;;;;;;;13.65;3.80;;;18.70;86.00;;;;;;5054098;28;20025;-73
2021/07/16 08:12:42;;;;;;;20.40;4.32;;;18.70;85.70;;;;;;5053915;28;20025;-73
2021/07/16 08:15:10;;;;;;;19.98;3.85;;;18.70;85.60;;;;;;5035288;28;20025;-73
2021/07/16 08:17:36;;;;;;;16.63;4.03;;;18.70;85.40;;;;;;5052148;28;20029;-73
2021/07/16 08:20:03;;;;;;;16.55;3.25;;;18.70;85.30;;;;;;5050774;28;20033;-73
2021/07/16 08:22:29;;;;;;;23.10;4.43;;;18.80;85.40;;;;;;5050941;28;20037;-73
2021/07/16 08:24:54;;;;;;;15.52;3.45;;;18.80;85.40;;;;;;5051567;28;20047;-73
2021/07/16 08:27:20;;;;;;;16.75;3.58;;;18.90;85.50;;;;;;5051021;28;20025;-74
2021/07/16 08:29:45;;;;;;;19.02;3.08;;;19.00;85.50;;;;;;5053657;28;20037;-73
2021/07/16 08:32:11;;;;;;;13.65;3.28;;;19.00;84.80;;;;;;5053276;28;20029;-79
2021/07/16 08:34:36;;;;;;;22.30;4.15;;;19.10;84.50;;;;;;5052474;28;20040;-74
2021/07/16 08:37:03;;;;;;;20.13;3.63;;;19.20;84.20;;;;;;5053793;28;20033;-74
2021/07/16 08:39:28;;;;;;;15.45;3.10;;;19.20;83.70;;;;;;5036059;28;20053;-74
2021/07/16 08:41:55;;;;;;;17.45;3.75;;;19.30;83.50;;;;;;5053559;28;20067;-74
2021/07/16 08:44:20;;;;;;;20.50;4.50;;;19.40;83.50;;;;;;5052320;28;20025;-77
2021/07/16 08:46:48;;;;;;;21.08;4.03;;;19.40;83.20;;;;;;5052130;28;20104;-73
2021/07/16 08:49:15;;;;;;;22.35;4.20;;;19.60;83.10;;;;;;5053725;28;20033;-73
2021/07/16 08:51:42;;;;;;;17.85;3.20;;;19.70;83.10;;;;;;5052362;28;20045;-77
2021/07/16 08:54:15;;;;;;;17.13;3.72;;;19.90;82.90;;;;;;5051814;28;20108;-77
2021/07/16 08:56:42;;;;;;;14.23;3.57;;;20.10;82.60;;;;;;5053304;28;20016;-74
2021/07/16 08:59:09;;;;;;;17.50;3.63;;;20.30;81.90;;;;;;5052492;28;20279;-74
2021/07/16 09:01:36;;;;;;;14.02;2.83;;;20.40;80.80;;;;;;5052495;28;20052;-74
2021/07/16 09:04:04;;;;;;;18.55;4.07;;;20.50;79.90;;;;;;5053599;28;20017;-74
2021/07/16 09:06:46;;;;;;;14.55;3.38;;;20.60;79.50;;;;;;5053515;28;20445;-75
2021/07/16 09:09:13;;;;;;;16.50;3.63;;;20.60;78.70;;;;;;5053391;28;20067;-74
2021/07/16 09:11:50;;;;;;;19.30;4.43;;;20.70;78.20;;;;;;5053170;28;20092;-75
2021/07/16 09:14:19;;;;;;;15.80;3.58;;;20.80;77.30;;;;;;5053125;28;20025;-75
2021/07/16 09:17:14;;;;;;;13.45;3.78;;;20.90;77.60;;;;;;5051955;28;20362;-74
2021/07/16 09:19:41;;;;;;;18.70;3.63;;;21.10;77.10;;;;;;5052231;28;20035;-74
2021/07/16 09:22:19;;;;;;;15.95;3.70;;;21.20;77.10;;;;;;5053181;28;20024;-74
2021/07/16 09:24:51;;;;;;;19.35;3.95;;;21.40;76.90;;;;;;5053315;28;20037;-73
2021/07/16 09:27:34;;;;;;;14.27;3.33;;;21.60;76.30;;;;;;5052076;28;20022;-78
2021/07/16 09:30:19;;;;;;;19.33;3.40;;;21.70;75.30;;;;;;5053161;28;20025;-78
2021/07/16 09:32:51;;;;;;;15.80;3.75;;;21.70;73.60;;;;;;5053086;28;20384;-78
2021/07/16 09:35:25;;;;;;;13.88;3.28;;;21.60;73.20;;;;;;5053240;28;20043;-73
2021/07/16 09:38:08;;;;;;;16.63;3.53;;;21.50;73.50;;;;;;5052902;28;20529;-73
2021/07/16 09:40:52;;;;;;;16.58;3.45;;;21.40;73.90;;;;;;5050065;28;20027;-73
2021/07/16 09:43:21;;;;;;;16.73;3.85;;;21.20;73.50;;;;;;5052855;28;20032;-74
2021/07/16 09:46:06;;;;;;;11.45;2.75;;;21.00;72.90;;;;;;5050041;28;20021;-73
2021/07/16 09:48:41;;;;;;;21.52;3.58;;;20.90;73.60;;;;;;5049856;28;20522;-74
2021/07/16 09:51:12;;;;;;;16.15;4.05;;;20.70;73.60;;;;;;5033770;28;20025;-72
2021/07/16 09:53:48;;;;;;;16.55;3.42;;;20.60;73.90;;;;;;5050967;28;20029;-77
2021/07/16 09:56:16;;;;;;;20.15;3.55;;;20.50;74.20;;;;;;5050874;28;20036;-73
2021/07/16 09:58:42;;;;;;;15.95;3.90;;;20.40;74.60;;;;;;5050975;28;20080;-73
2021/07/16 10:01:09;;;;;;;24.70;5.72;;;20.30;74.80;;;;;;5050092;28;20428;-73
2021/07/16 10:03:40;;;;;;;13.38;4.30;;;20.20;75.20;;;;;;5049691;28;20388;-74
2021/07/16 10:06:12;;;;;;;17.13;4.05;;;20.20;75.50;;;;;;5053128;28;20037;-73
2021/07/16 10:08:39;;;;;;;21.10;3.85;;;20.10;75.80;;;;;;5053416;28;20021;-73
2021/07/16 10:11:06;;;;;;;18.67;4.03;;;20.10;76.20;;;;;;5053948;28;20067;-74
2021/07/16 10:13:36;;;;;;;20.30;4.30;;;20.10;76.30;;;;;;5054519;28;20068;-75
2021/07/16 10:16:03;;;;;;;21.10;4.13;;;20.00;76.30;;;;;;5053304;28;20029;-74
2021/07/16 10:18:29;;;;;;;19.48;4.93;;;20.10;76.40;;;;;;5054451;28;20029;-74
2021/07/16 10:20:58;;;;;;;20.15;4.30;;;20.00;76.60;;;;;;5054294;28;20086;-78
2021/07/16 10:23:26;;;;;;;18.83;4.25;;;20.10;76.80;;;;;;5037135;28;20538;-80
2021/07/16 10:25:53;;;;;;;18.38;3.90;;;20.10;76.90;;;;;;5053181;28;20097;-73
2021/07/16 10:28:32;;;;;;;16.90;3.95;;;20.10;77.00;;;;;;5054032;28;20422;-73
2021/07/16 10:30:59;;;;;;;17.23;3.95;;;20.10;77.20;;;;;;5054499;28;20376;-73
2021/07/16 10:33:42;;;;;;;15.23;3.90;;;20.10;77.20;;;;;;5053227;28;20063;-74
2021/07/16 10:36:12;;;;;;;17.73;3.83;;;20.10;77.20;;;;;;5053712;28;20059;-73
2021/07/16 10:38:38;;;;;;;19.67;3.95;;;20.10;77.30;;;;;;5054471;28;20093;-73
2021/07/16 10:41:04;;;;;;;17.67;3.70;;;20.00;78.30;;;;;;5053714;28;20541;-75
2021/07/16 10:43:30;;;;;;;16.45;4.03;;;20.00;77.90;;;;;;5053818;28;20283;-74
2021/07/16 10:45:57;;;;;;;14.98;3.45;;;20.10;78.30;;;;;;5052818;28;20035;-73
2021/07/16 10:48:32;;;;;;;17.30;4.10;;;20.10;78.50;;;;;;5052939;28;20029;-73
2021/07/16 10:50:58;;;;;;;11.38;3.80;;;20.10;78.70;;;;;;5054873;28;20066;-73
2021/07/16 10:53:27;;;;;;;15.23;3.78;;;20.10;78.80;;;;;;5053828;28;20037;-73
2021/07/16 10:55:55;;;;;;;16.58;4.30;;;20.10;78.70;;;;;;5052568;28;20025;-74
2021/07/16 10:58:23;;;;;;;17.20;4.90;;;20.10;78.50;;;;;;5052552;28;20029;-74
2021/07/16 11:00:53;;;;;;;15.27;4.10;;;20.10;78.50;;;;;;5053950;28;20538;-73
2021/07/16 11:03:20;;;;;;;19.77;4.57;;;20.10;78.60;;;;;;5053216;28;20032;-73
2021/07/16 11:05:46;;;;;;;19.65;4.10;;;20.00;78.50;;;;;;5053981;28;20108;-73
2021/07/16 11:08:26;;;;;;;17.05;4.95;;;20.00;78.90;;;;;;5053638;28;20028;-73
2021/07/16 11:11:07;;;;;;;18.90;4.07;;;19.90;79.10;;;;;;5052384;28;20025;-73
2021/07/16 11:13:53;;;;;;;20.60;4.80;;;19.90;79.20;;;;;;5054938;28;20046;-73
2021/07/16 11:16:25;;;;;;;16.80;4.00;;;19.90;79.30;;;;;;5055043;28;20033;-73
2021/07/16 11:19:02;;;;;;;23.65;5.03;;;19.80;79.40;;;;;;5055171;28;20021;-71
2021/07/16 11:21:45;;;;;;;16.40;4.28;;;19.80;79.50;;;;;;5054982;28;20025;-72
2021/07/16 11:24:20;;;;;;;18.67;5.45;;;19.80;79.80;;;;;;5053398;28;20060;-71
2021/07/16 11:27:09;;;;;;;15.60;4.03;;;19.90;79.90;;;;;;5053906;28;20400;-72
2021/07/16 11:29:39;;;;;;;13.38;3.58;;;20.10;80.10;;;;;;5053282;28;20373;-71
2021/07/16 11:32:27;;;;;;;16.80;4.05;;;20.30;80.10;;;;;;5054638;28;20469;-71
2021/07/16 11:35:06;;;;;;;18.88;4.40;;;20.40;79.40;;;;;;5053385;28;20087;-72
2021/07/16 11:37:36;;;;;;;16.90;4.03;;;20.50;78.90;;;;;;5054501;28;20025;-71
2021/07/16 11:40:09;;;;;;;14.80;3.63;;;20.60;78.70;;;;;;5053075;28;20464;-72
2021/07/16 11:42:41;;;;;;;16.10;3.42;;;20.60;78.30;;;;;;5054479;28;20066;-70
2021/07/16 11:45:10;;;;;;;18.15;3.25;;;20.70;78.20;;;;;;5053554;28;20112;-71
2021/07/16 11:47:36;;;;;;;16.33;3.92;;;20.70;77.90;;;;;;5053563;28;20054;-71
2021/07/16 11:50:08;;;;;;;13.38;4.30;;;20.70;77.70;;;;;;5054568;28;20017;-72
2021/07/16 11:52:35;;;;;;;15.02;3.67;;;20.80;77.40;;;;;;5054413;28;20064;-71
2021/07/16 11:55:08;;;;;;;17.02;3.35;;;20.70;78.00;;;;;;5054287;28;20068;-72
2021/07/16 11:57:36;;;;;;;21.35;4.60;;;20.70;77.30;;;;;;5054136;28;20037;-70
2021/07/16 12:00:08;;;;;;;26.50;4.57;;;20.60;76.70;;;;;;5054301;28;20423;-73
2021/07/16 12:02:34;;;;;;;18.10;4.25;;;20.60;76.90;;;;;;5039526;28;20030;-71
2021/07/16 12:04:59;;;;;;;18.15;4.68;;;20.50;76.90;;;;;;5032619;28;20046;-72
2021/07/16 12:07:25;;;;;;;21.75;4.72;;;20.40;76.80;;;;;;5015649;28;20032;-71
2021/07/16 12:09:51;;;;;;;15.68;3.55;;;20.40;77.10;;;;;;5033180;28;20025;-72
2021/07/16 12:12:20;;;;;;;18.92;5.05;;;20.40;77.40;;;;;;5016518;28;20499;-73
2021/07/16 12:15:05;;;;;;;17.33;4.50;;;20.40;77.40;;;;;;5032921;28;20021;-72
2021/07/16 12:17:34;;;;;;;18.40;4.40;;;20.40;77.50;;;;;;5033599;28;20041;-72
2021/07/16 12:20:01;;;;;;;15.80;3.95;;;20.50;77.70;;;;;;5034022;28;20017;-72
2021/07/16 12:22:29;;;;;;;16.48;4.07;;;20.60;77.70;;;;;;5032616;28;20396;-72
2021/07/16 12:24:56;;;;;;;18.42;4.43;;;20.70;77.70;;;;;;5033707;28;20033;-72
2021/07/16 12:27:22;;;;;;;14.60;3.78;;;20.80;77.50;;;;;;5032893;28;20017;-72
2021/07/16 12:29:59;;;;;;;18.48;4.15;;;20.90;77.40;;;;;;5031964;28;20093;-72
2021/07/16 12:32:46;;;;;;;11.65;3.60;;;21.00;77.50;;;;;;5032588;28;20074;-72
2021/07/16 12:35:12;;;;;;;17.13;3.65;;;21.00;77.70;;;;;;5032730;28;20497;-72
2021/07/16 12:37:39;;;;;;;17.63;4.45;;;21.10;77.60;;;;;;5033803;28;20748;-75
2021/07/16 12:40:06;;;;;;;15.20;3.72;;;21.10;77.30;;;;;;5033422;28;20152;-72
2021/07/16 12:42:35;;;;;;;14.88;3.70;;;21.20;77.00;;;;;;5048539;28;20131;-73